Time;durP1;ratioP1;P1;durP2;ratioP2;P2;SDS_P1;SDS_P2;PMS_P1;PMS_P2;Temp;Humidity;BMP_temperature;BMP_pressure;BME280_temperature;BME280_humidity;BME280_pressure;Samples;Min_cycle;Max_cycle;Signal;HPM_P1;HPM_P2
2021/11/18 08:21:36;;;;;;;17.10;7.00;;;3.30;99.90;;;;;;5113535;27;20605;-78
2021/11/18 08:24:03;;;;;;;8.63;6.77;;;3.40;99.90;;;;;;5095406;28;20413;-78
2021/11/18 08:26:30;;;;;;;8.97;6.83;;;3.70;99.90;;;;;;5115199;28;20409;-79
2021/11/18 08:28:56;;;;;;;8.40;6.60;;;3.70;99.90;;;;;;5134178;28;20404;-78
2021/11/18 08:31:23;;;;;;;8.53;6.73;;;3.80;99.90;;;;;;5117155;28;20738;-78
2021/11/18 08:33:50;;;;;;;7.97;6.10;;;3.90;99.90;;;;;;5131274;28;20171;-78
2021/11/18 08:36:16;;;;;;;11.77;7.03;;;3.90;99.90;;;;;;5150646;28;20392;-78
2021/11/18 08:38:42;;;;;;;8.47;6.70;;;4.00;99.90;;;;;;5132162;28;20425;-78
2021/11/18 08:41:09;;;;;;;7.60;5.97;;;4.10;99.90;;;;;;5134231;28;20220;-78
2021/11/18 08:43:39;;;;;;;9.93;7.30;;;4.10;99.90;;;;;;5133568;28;20171;-78
2021/11/18 08:46:06;;;;;;;8.73;6.60;;;4.50;99.90;;;;;;5133344;28;20500;-79
2021/11/18 08:48:32;;;;;;;7.83;6.57;;;4.90;99.90;;;;;;5133480;28;20592;-78
2021/11/18 08:50:59;;;;;;;8.03;6.10;;;5.10;99.90;;;;;;5115242;28;20266;-78
2021/11/18 08:53:28;;;;;;;7.33;6.47;;;5.10;99.90;;;;;;5133545;28;20167;-78
2021/11/18 08:55:57;;;;;;;6.47;5.77;;;4.90;99.90;;;;;;5133423;28;20537;-78
2021/11/18 08:58:25;;;;;;;8.47;6.33;;;4.90;99.90;;;;;;5132823;28;20551;-78
2021/11/18 09:01:03;;;;;;;7.37;5.93;;;4.80;99.90;;;;;;5132778;28;20210;-78
2021/11/18 09:03:33;;;;;;;9.50;7.23;;;4.80;99.90;;;;;;5133358;28;20493;-78
2021/11/18 09:06:05;;;;;;;6.93;5.73;;;5.00;99.90;;;;;;5114756;28;20176;-81
2021/11/18 09:08:32;;;;;;;11.07;6.17;;;5.30;99.90;;;;;;5114420;28;20193;-78
2021/11/18 09:10:58;;;;;;;8.83;6.47;;;5.60;99.90;;;;;;5132348;28;20218;-78
2021/11/18 09:13:25;;;;;;;6.20;5.60;;;5.90;99.90;;;;;;5132482;28;20169;-78
2021/11/18 09:15:52;;;;;;;6.90;5.50;;;6.40;99.90;;;;;;5132656;28;20581;-78
2021/11/18 09:18:18;;;;;;;6.73;6.07;;;6.50;99.90;;;;;;5114545;28;20202;-78
2021/11/18 09:20:45;;;;;;;6.33;5.07;;;6.60;99.90;;;;;;5132587;28;20209;-78
2021/11/18 09:23:13;;;;;;;5.87;5.17;;;7.00;99.90;;;;;;5115201;28;20625;-80
2021/11/18 09:25:43;;;;;;;7.63;5.40;;;8.30;99.90;;;;;;5116434;28;20203;-81
2021/11/18 09:28:11;;;;;;;6.97;6.03;;;7.30;99.90;;;;;;5116478;28;20202;-81
2021/11/18 09:30:42;;;;;;;6.73;5.27;;;7.30;99.90;;;;;;5115023;28;20242;-78
2021/11/18 09:33:08;;;;;;;10.33;6.10;;;7.40;99.90;;;;;;5100856;28;20181;-78
2021/11/18 09:35:37;;;;;;;6.73;5.87;;;7.50;99.90;;;;;;5119754;28;20186;-79
2021/11/18 09:38:05;;;;;;;6.73;6.03;;;7.70;99.90;;;;;;5120433;28;20268;-81
2021/11/18 09:41:05;;;;;;;7.13;6.27;;;7.90;99.90;;;;;;5120360;28;20187;-78
2021/11/18 09:43:34;;;;;;;5.90;5.13;;;8.00;99.90;;;;;;5047583;28;20240;-80
2021/11/18 09:46:27;;;;;;;7.30;6.20;;;8.30;99.90;;;;;;5121421;28;20167;-80
2021/11/18 09:49:23;;;;;;;9.70;5.83;;;8.60;99.90;;;;;;5121959;28;20182;-79
2021/11/18 09:52:10;;;;;;;10.37;7.17;;;8.60;99.90;;;;;;5122531;28;20159;-79
2021/11/18 09:54:55;;;;;;;7.03;5.00;;;8.70;99.90;;;;;;5123483;28;20177;-78
2021/11/18 09:57:48;;;;;;;22.77;14.23;;;8.70;99.90;;;;;;5120502;28;20198;-79
2021/11/18 10:00:44;;;;;;;11.47;8.40;;;8.90;99.90;;;;;;5119633;28;20187;-79
2021/11/18 10:03:35;;;;;;;6.10;5.47;;;8.90;99.90;;;;;;5102430;28;20633;-79
2021/11/18 10:06:23;;;;;;;6.30;4.67;;;9.30;99.90;;;;;;5119675;28;20661;-79
2021/11/18 10:08:59;;;;;;;5.73;4.37;;;9.60;99.90;;;;;;5102003;28;20698;-80
2021/11/18 10:11:37;;;;;;;5.30;4.40;;;10.10;99.90;;;;;;5120234;28;20246;-78
2021/11/18 10:14:24;;;;;;;6.33;4.57;;;10.00;99.90;;;;;;5101064;28;20243;-78
2021/11/18 10:17:13;;;;;;;5.27;4.77;;;10.20;99.90;;;;;;5119094;28;20215;-78
2021/11/18 10:19:52;;;;;;;7.13;5.20;;;10.50;99.90;;;;;;5084079;28;20215;-78
2021/11/18 10:22:22;;;;;;;18.43;5.67;;;10.70;99.90;;;;;;5118768;28;20185;-78
2021/11/18 10:24:50;;;;;;;5.40;4.90;;;10.80;99.90;;;;;;5099839;28;20175;-78
2021/11/18 10:27:39;;;;;;;6.67;5.20;;;10.80;99.90;;;;;;5099998;28;20200;-78
2021/11/18 10:30:29;;;;;;;5.97;4.53;;;10.70;99.90;;;;;;5118176;28;20191;-78
2021/11/18 10:33:09;;;;;;;5.50;5.00;;;10.50;99.90;;;;;;5117681;28;20196;-78
2021/11/18 10:35:57;;;;;;;5.93;4.30;;;10.60;99.90;;;;;;5099378;28;20182;-78
2021/11/18 10:38:36;;;;;;;5.03;4.53;;;10.70;99.90;;;;;;5114446;28;20232;-78
2021/11/18 10:41:17;;;;;;;4.33;3.93;;;10.60;99.90;;;;;;5118025;28;20203;-78
2021/11/18 10:44:00;;;;;;;16.63;4.63;;;10.40;99.90;;;;;;5114138;28;20179;-79
2021/11/18 10:46:38;;;;;;;4.20;3.80;;;10.10;99.90;;;;;;5119902;28;20213;-78
2021/11/18 10:49:09;;;;;;;4.70;4.17;;;10.20;99.90;;;;;;5101482;28;20263;-78
2021/11/18 10:51:45;;;;;;;4.37;3.97;;;10.70;99.90;;;;;;5101733;28;20172;-79
2021/11/18 10:54:15;;;;;;;4.43;4.03;;;10.90;99.90;;;;;;5121331;28;20182;-79
2021/11/18 10:56:55;;;;;;;4.20;3.80;;;11.10;99.90;;;;;;5119519;28;20192;-79
2021/11/18 10:59:41;;;;;;;9.73;4.00;;;11.00;99.90;;;;;;5121253;28;20164;-78
2021/11/18 11:02:20;;;;;;;5.00;4.50;;;11.00;99.90;;;;;;5100973;28;20176;-78
2021/11/18 11:04:49;;;;;;;5.30;4.77;;;11.20;99.90;;;;;;5101136;28;20246;-78
2021/11/18 11:07:29;;;;;;;11.93;7.43;;;11.40;99.90;;;;;;5119141;28;20195;-79
2021/11/18 11:09:55;;;;;;;11.20;7.80;;;11.40;99.90;;;;;;5100697;28;20201;-78
2021/11/18 11:12:30;;;;;;;5.37;4.83;;;11.50;99.90;;;;;;5118196;28;20600;-79
2021/11/18 11:15:32;;;;;;;4.87;4.47;;;11.60;99.90;;;;;;5118072;28;20167;-78
2021/11/18 11:18:09;;;;;;;4.53;4.10;;;12.20;99.90;;;;;;5117570;28;20191;-78
2021/11/18 11:21:00;;;;;;;6.07;4.10;;;12.50;99.90;;;;;;5120085;28;20203;-79
2021/11/18 11:23:50;;;;;;;5.87;4.17;;;13.00;99.90;;;;;;5101532;28;20179;-79
2021/11/18 11:26:46;;;;;;;4.80;4.10;;;12.90;99.90;;;;;;5119980;28;20162;-79
2021/11/18 11:29:27;;;;;;;8.13;4.00;;;12.50;99.90;;;;;;5100923;28;20167;-79
2021/11/18 11:32:09;;;;;;;4.23;3.83;;;11.90;99.90;;;;;;5102229;28;20574;-79
2021/11/18 11:34:48;;;;;;;4.77;4.27;;;11.20;99.90;;;;;;5100933;28;20574;-79
2021/11/18 11:37:57;;;;;;;4.10;3.67;;;11.50;99.90;;;;;;5121435;28;20191;-78
2021/11/18 11:40:53;;;;;;;7.50;4.03;;;11.90;99.90;;;;;;5126479;28;20262;-78
2021/11/18 11:43:30;;;;;;;4.87;3.70;;;11.90;99.90;;;;;;5063583;28;20273;-78
2021/11/18 11:46:42;;;;;;;4.50;4.10;;;11.90;99.90;;;;;;5106372;28;20175;-79
2021/11/18 11:49:17;;;;;;;4.73;4.00;;;12.10;99.90;;;;;;5063230;28;20526;-79
2021/11/18 11:52:02;;;;;;;4.27;3.87;;;12.30;99.90;;;;;;5101269;28;20182;-79
2021/11/18 11:54:55;;;;;;;4.70;4.17;;;12.60;99.90;;;;;;5100468;28;20167;-79
2021/11/18 11:57:41;;;;;;;7.47;4.37;;;12.90;99.90;;;;;;5101273;28;20210;-78
2021/11/18 12:00:24;;;;;;;5.03;4.20;;;13.10;99.90;;;;;;5119491;28;20183;-79
2021/11/18 12:03:20;;;;;;;5.93;4.37;;;13.20;99.90;;;;;;5120646;28;20163;-81
2021/11/18 12:06:28;;;;;;;4.10;3.77;;;13.20;99.90;;;;;;5120140;28;20186;-78
2021/11/18 12:09:08;;;;;;;4.40;3.97;;;13.10;99.90;;;;;;5002420;28;20642;-78
2021/11/18 12:11:46;;;;;;;4.30;3.90;;;13.50;99.90;;;;;;5001287;28;20221;-79
2021/11/18 12:14:34;;;;;;;5.27;3.57;;;13.30;99.90;;;;;;5064125;28;20279;-79
2021/11/18 12:17:27;;;;;;;3.43;3.13;;;13.20;99.90;;;;;;5118851;28;20188;-79
2021/11/18 12:20:06;;;;;;;4.10;3.70;;;12.90;99.90;;;;;;5119760;28;20306;-79
2021/11/18 12:22:53;;;;;;;4.53;3.83;;;12.60;99.90;;;;;;5100497;28;20533;-79
2021/11/18 12:25:29;;;;;;;4.67;3.70;;;12.40;99.90;;;;;;5083541;28;20594;-78
2021/11/18 12:28:14;;;;;;;8.40;3.80;;;12.30;99.90;;;;;;5101201;28;20257;-79
2021/11/18 12:30:48;;;;;;;3.83;3.47;;;12.30;99.90;;;;;;5101111;28;20177;-79
2021/11/18 12:33:17;;;;;;;3.90;3.60;;;11.90;99.90;;;;;;5100688;28;20203;-79
2021/11/18 12:36:05;;;;;;;4.40;3.67;;;11.80;99.90;;;;;;5100481;28;20179;-79
2021/11/18 12:38:36;;;;;;;4.27;3.50;;;11.90;99.90;;;;;;5101064;28;20195;-79
2021/11/18 12:42:09;;;;;;;10.27;7.47;;;11.70;99.90;;;;;;5119211;28;20676;-80
2021/11/18 12:44:55;;;;;;;4.23;3.83;;;11.20;99.90;;;;;;5058941;28;20270;-80
2021/11/18 12:48:01;;;;;;;4.50;3.50;;;10.80;99.90;;;;;;5121044;28;20189;-79
2021/11/18 12:50:49;;;;;;;3.87;2.97;;;10.80;99.90;;;;;;5101355;28;20190;-79
2021/11/18 12:53:19;;;;;;;4.80;3.90;;;10.50;99.90;;;;;;5101728;28;20168;-79
2021/11/18 12:56:22;;;;;;;4.50;4.10;;;10.50;99.90;;;;;;5101000;28;20687;-81
2021/11/18 12:59:01;;;;;;;4.17;3.50;;;10.40;99.90;;;;;;5119367;28;20199;-79
2021/11/18 13:01:26;;;;;;;5.80;4.00;;;10.40;99.90;;;;;;5101537;28;20191;-78
2021/11/18 13:03:59;;;;;;;4.07;3.23;;;10.20;99.90;;;;;;5100056;28;20172;-78
2021/11/18 13:06:37;;;;;;;3.43;3.03;;;10.10;99.90;;;;;;5100854;28;20540;-78
2021/11/18 13:09:05;;;;;;;4.40;3.50;;;10.00;99.90;;;;;;5103434;28;20193;-78
2021/11/18 13:11:30;;;;;;;3.50;3.13;;;10.10;99.90;;;;;;5103465;28;20171;-78
2021/11/18 13:14:08;;;;;;;4.87;3.80;;;10.20;99.90;;;;;;5121098;28;20194;-79
2021/11/18 13:16:59;;;;;;;8.40;5.80;;;10.10;99.90;;;;;;5121704;28;20645;-79
2021/11/18 13:19:37;;;;;;;12.60;9.40;;;9.90;99.90;;;;;;5121420;28;20195;-79
2021/11/18 13:22:13;;;;;;;10.70;6.60;;;9.80;99.90;;;;;;5105683;28;20186;-80
2021/11/18 13:24:59;;;;;;;7.93;6.03;;;9.80;99.90;;;;;;5105004;28;20167;-79
2021/11/18 13:27:27;;;;;;;6.43;5.00;;;9.60;99.90;;;;;;5121150;28;20202;-78
2021/11/18 13:29:58;;;;;;;7.83;5.17;;;9.50;99.90;;;;;;5121633;28;20180;-78
2021/11/18 13:32:27;;;;;;;5.57;4.70;;;9.30;99.90;;;;;;5122018;28;20170;-79
2021/11/18 13:35:11;;;;;;;9.50;4.93;;;9.20;99.90;;;;;;5104899;28;20172;-79
2021/11/18 13:37:43;;;;;;;8.47;5.73;;;9.10;99.90;;;;;;5116684;28;20210;-79
2021/11/18 13:40:27;;;;;;;10.10;5.70;;;9.00;99.90;;;;;;5115306;28;20573;-79
2021/11/18 13:42:59;;;;;;;6.00;4.40;;;8.90;99.90;;;;;;5126323;28;20206;-79
2021/11/18 13:45:32;;;;;;;5.40;4.17;;;8.90;99.90;;;;;;5121519;28;20171;-80
2021/11/18 13:48:02;;;;;;;6.80;3.90;;;9.00;99.90;;;;;;5102860;28;20207;-80
2021/11/18 13:50:37;;;;;;;6.17;4.20;;;9.10;99.90;;;;;;5103583;28;20176;-79
2021/11/18 13:53:17;;;;;;;6.03;4.87;;;9.10;99.90;;;;;;5102537;28;20186;-79
2021/11/18 13:55:49;;;;;;;7.23;4.93;;;9.10;99.90;;;;;;5102688;28;20184;-80
2021/11/18 13:58:56;;;;;;;5.87;4.70;;;9.10;99.90;;;;;;5120745;28;20287;-77
2021/11/18 14:01:38;;;;;;;5.40;4.47;;;8.90;99.90;;;;;;5063537;28;20227;-78
2021/11/18 14:04:21;;;;;;;9.40;4.77;;;8.80;99.90;;;;;;5103469;28;20175;-78
2021/11/18 14:06:51;;;;;;;6.73;4.53;;;8.80;99.90;;;;;;5120387;28;20159;-79
2021/11/18 14:09:22;;;;;;;9.27;5.00;;;8.80;99.90;;;;;;5102061;28;20176;-79
2021/11/18 14:11:53;;;;;;;7.33;5.60;;;8.70;99.90;;;;;;5119551;28;20167;-79
2021/11/18 14:14:35;;;;;;;9.63;4.63;;;8.60;99.90;;;;;;5101126;28;20175;-78
2021/11/18 14:17:35;;;;;;;8.43;5.20;;;8.40;99.90;;;;;;5118910;28;20196;-79
2021/11/18 14:20:28;;;;;;;7.77;4.70;;;8.30;99.90;;;;;;5114285;28;20312;-79
2021/11/18 14:23:09;;;;;;;6.20;4.90;;;8.10;99.90;;;;;;5119384;28;20247;-79
2021/11/18 14:25:37;;;;;;;7.23;5.03;;;8.00;99.90;;;;;;5101450;28;20175;-78
2021/11/18 14:28:15;;;;;;;6.47;5.30;;;7.90;99.90;;;;;;5119930;28;20680;-79
2021/11/18 14:30:49;;;;;;;7.47;5.20;;;7.90;99.90;;;;;;5120524;28;20159;-79
2021/11/18 14:33:27;;;;;;;11.73;5.80;;;8.00;99.90;;;;;;5122020;28;20187;-79
2021/11/18 14:36:13;;;;;;;7.57;5.60;;;7.80;99.90;;;;;;5120362;28;20156;-78
2021/11/18 14:38:49;;;;;;;8.50;5.87;;;7.80;99.90;;;;;;5100069;28;20290;-78
2021/11/18 14:41:31;;;;;;;9.10;5.70;;;7.80;99.90;;;;;;5100570;28;20563;-79
2021/11/18 14:44:15;;;;;;;11.90;6.20;;;7.70;99.90;;;;;;5100191;28;20199;-78
2021/11/18 14:46:43;;;;;;;7.23;5.50;;;7.60;99.90;;;;;;5099605;28;20574;-78
2021/11/18 14:49:38;;;;;;;7.27;5.33;;;7.60;99.90;;;;;;5117918;28;20233;-78
2021/11/18 14:52:29;;;;;;;14.20;6.10;;;7.60;99.90;;;;;;5100206;28;20165;-78
2021/11/18 14:55:23;;;;;;;14.30;6.73;;;7.60;99.90;;;;;;5118027;28;20398;-79
2021/11/18 14:58:17;;;;;;;10.93;7.17;;;7.40;99.90;;;;;;5091760;28;20437;-79
2021/11/18 15:00:50;;;;;;;9.80;5.83;;;7.30;99.90;;;;;;5099965;28;20449;-78
2021/11/18 15:03:20;;;;;;;20.90;7.37;;;7.30;99.90;;;;;;5099631;28;20171;-79
2021/11/18 15:05:47;;;;;;;16.63;6.67;;;7.20;99.90;;;;;;5118244;28;20405;-78
2021/11/18 15:08:13;;;;;;;60.47;12.50;;;7.10;99.90;;;;;;5117876;28;20202;-79
2021/11/18 15:10:42;;;;;;;12.83;7.60;;;7.10;99.90;;;;;;5118143;28;20182;-78
2021/11/18 15:13:09;;;;;;;25.77;9.20;;;7.00;99.90;;;;;;5099492;28;20409;-79
2021/11/18 15:15:36;;;;;;;13.73;8.13;;;7.00;99.90;;;;;;5116808;28;20510;-79
2021/11/18 15:18:08;;;;;;;12.40;8.53;;;6.90;99.90;;;;;;5099301;28;20201;-78
2021/11/18 15:20:49;;;;;;;15.70;9.53;;;6.90;99.90;;;;;;5099183;28;20481;-78
2021/11/18 15:23:17;;;;;;;24.60;13.47;;;6.70;99.90;;;;;;5100181;28;20448;-78
2021/11/18 15:25:43;;;;;;;20.63;11.47;;;6.60;99.90;;;;;;5100637;28;20421;-78
2021/11/18 15:28:10;;;;;;;22.63;13.70;;;6.50;99.90;;;;;;5118313;28;20489;-78
2021/11/18 15:30:45;;;;;;;27.00;15.43;;;6.40;99.90;;;;;;5098973;28;20640;-78
2021/11/18 15:33:12;;;;;;;31.27;15.87;;;6.30;99.90;;;;;;5099579;28;20413;-79
2021/11/18 15:35:39;;;;;;;18.17;11.67;;;6.20;99.90;;;;;;5099727;28;20461;-79
2021/11/18 15:38:09;;;;;;;36.63;20.13;;;6.10;99.90;;;;;;5098957;28;20434;-78
2021/11/18 15:40:39;;;;;;;48.77;24.80;;;6.00;99.90;;;;;;5118492;28;20804;-78
2021/11/18 15:43:06;;;;;;;41.93;19.87;;;5.90;99.90;;;;;;5137430;28;20413;-79
2021/11/18 15:45:33;;;;;;;32.40;16.97;;;5.90;99.90;;;;;;5137994;28;20405;-78
2021/11/18 15:47:59;;;;;;;25.53;13.90;;;5.90;99.90;;;;;;5133174;28;20458;-78
2021/11/18 15:50:27;;;;;;;23.40;11.47;;;5.80;99.90;;;;;;5098923;28;20497;-79
2021/11/18 15:52:54;;;;;;;26.43;14.00;;;5.80;99.90;;;;;;5099720;28;20546;-79
2021/11/18 15:55:21;;;;;;;27.80;14.00;;;5.70;99.90;;;;;;5098945;28;20413;-78
2021/11/18 15:57:49;;;;;;;20.37;13.17;;;5.50;99.90;;;;;;5098896;28;20421;-79
2021/11/18 16:00:22;;;;;;;19.30;11.40;;;5.40;99.90;;;;;;5098776;28;20461;-78
2021/11/18 16:03:01;;;;;;;27.93;16.93;;;5.30;99.90;;;;;;5116826;28;20392;-78
2021/11/18 16:05:29;;;;;;;59.73;33.83;;;5.20;99.90;;;;;;5098354;28;20797;-78
2021/11/18 16:07:56;;;;;;;47.33;25.73;;;5.20;99.90;;;;;;5116794;28;20930;-78
2021/11/18 16:10:25;;;;;;;28.37;18.70;;;5.10;99.90;;;;;;5098776;28;20477;-79
2021/11/18 16:12:58;;;;;;;22.80;14.20;;;5.10;99.90;;;;;;5104573;28;20986;-79
2021/11/18 16:15:26;;;;;;;18.27;12.43;;;5.10;99.90;;;;;;5113551;28;20419;-79
2021/11/18 16:17:54;;;;;;;21.30;15.47;;;5.00;99.90;;;;;;5128054;28;20452;-78
2021/11/18 16:20:28;;;;;;;41.77;22.43;;;5.00;99.90;;;;;;5125464;28;20571;-78
2021/11/18 16:22:54;;;;;;;43.10;23.50;;;4.90;99.90;;;;;;5118695;28;20855;-78
2021/11/18 16:25:24;;;;;;;40.20;22.10;;;4.80;99.90;;;;;;5117097;28;20457;-78
2021/11/18 16:27:51;;;;;;;38.40;23.57;;;4.80;99.90;;;;;;5098669;28;20526;-78
2021/11/18 16:30:22;;;;;;;36.97;21.37;;;4.80;99.90;;;;;;5117046;28;20413;-78
2021/11/18 16:32:53;;;;;;;34.17;20.43;;;4.70;99.90;;;;;;5099008;28;20421;-78
2021/11/18 16:35:19;;;;;;;32.23;17.90;;;4.70;99.90;;;;;;5116799;28;20409;-78
2021/11/18 16:37:46;;;;;;;29.83;19.23;;;4.60;99.90;;;;;;5116164;28;20520;-78
2021/11/18 16:40:20;;;;;;;36.20;19.57;;;4.60;99.90;;;;;;5102198;28;20475;-78
2021/11/18 16:42:46;;;;;;;34.67;21.27;;;4.60;99.90;;;;;;5120927;28;20401;-78
2021/11/18 16:45:13;;;;;;;36.23;23.30;;;4.50;99.90;;;;;;5120007;28;20778;-78
2021/11/18 16:47:39;;;;;;;29.27;20.23;;;4.40;99.90;;;;;;5119324;28;20433;-78
2021/11/18 16:50:16;;;;;;;30.93;17.80;;;4.40;99.90;;;;;;5119743;28;20462;-76
2021/11/18 16:52:43;;;;;;;22.23;13.97;;;4.40;99.90;;;;;;5120881;28;20389;-78
2021/11/18 16:55:13;;;;;;;20.37;13.60;;;4.30;99.90;;;;;;5120138;28;20454;-78
2021/11/18 16:57:40;;;;;;;20.83;11.70;;;4.20;99.90;;;;;;5103578;28;20790;-78
2021/11/18 17:00:16;;;;;;;18.60;11.73;;;4.20;99.90;;;;;;5123031;28;20489;-78
2021/11/18 17:02:42;;;;;;;16.30;11.27;;;4.10;99.90;;;;;;5121824;28;20397;-78
2021/11/18 17:05:08;;;;;;;17.90;11.17;;;4.10;99.90;;;;;;5120604;28;20409;-80
2021/11/18 17:07:34;;;;;;;16.00;12.00;;;4.10;99.90;;;;;;5102234;28;20195;-78
2021/11/18 17:10:01;;;;;;;19.33;12.27;;;4.10;99.90;;;;;;5101833;28;20906;-78
2021/11/18 17:12:26;;;;;;;22.40;14.60;;;4.20;99.90;;;;;;5120949;28;20420;-78
2021/11/18 17:14:52;;;;;;;25.67;15.80;;;4.20;99.90;;;;;;5121031;28;20910;-79
2021/11/18 17:17:20;;;;;;;26.37;16.03;;;4.20;99.90;;;;;;5127688;28;20213;-78
2021/11/18 17:19:47;;;;;;;25.77;16.73;;;4.30;99.90;;;;;;5129027;28;20660;-78
2021/11/18 17:22:17;;;;;;;32.47;19.50;;;4.30;99.90;;;;;;5121195;28;20849;-78
2021/11/18 17:24:43;;;;;;;29.80;20.13;;;;;;;;;;5102913;28;20956;-78
2021/11/18 17:27:11;;;;;;;26.57;17.00;;;4.30;99.90;;;;;;5100875;28;20464;-78
2021/11/18 17:29:41;;;;;;;31.83;18.70;;;4.30;99.90;;;;;;5101103;28;20417;-78
2021/11/18 17:32:12;;;;;;;38.10;23.57;;;4.50;99.90;;;;;;5119247;28;20409;-78
2021/11/18 17:34:39;;;;;;;71.77;42.33;;;4.30;99.90;;;;;;5118982;28;20458;-78
2021/11/18 17:37:05;;;;;;;76.10;40.37;;;;;;;;;;5117958;28;20535;-78
2021/11/18 17:39:40;;;;;;;45.53;27.03;;;4.30;99.90;;;;;;5117842;28;20412;-77
2021/11/18 17:42:10;;;;;;;30.63;19.33;;;4.30;99.90;;;;;;5099891;28;20409;-78
2021/11/18 17:44:41;;;;;;;34.37;21.27;;;4.30;99.90;;;;;;5118494;28;20434;-78
2021/11/18 17:47:11;;;;;;;31.10;19.27;;;4.40;99.90;;;;;;5099993;28;20442;-78
2021/11/18 17:49:37;;;;;;;22.87;16.13;;;;;;;;;;5118858;28;20400;-78
2021/11/18 17:52:12;;;;;;;25.27;17.37;;;4.40;99.90;;;;;;5118149;28;20770;-78
2021/11/18 17:54:38;;;;;;;23.93;16.80;;;;;;;;;;5118310;28;20389;-78
2021/11/18 17:57:05;;;;;;;23.60;15.97;;;4.40;99.90;;;;;;5119444;28;20429;-79
2021/11/18 17:59:32;;;;;;;21.27;13.10;;;4.30;99.90;;;;;;5120148;28;20773;-79
2021/11/18 18:02:05;;;;;;;17.00;11.53;;;4.30;99.90;;;;;;5120988;28;20401;-79
2021/11/18 18:04:31;;;;;;;19.00;11.87;;;4.30;99.90;;;;;;5122081;28;20446;-79
2021/11/18 18:06:57;;;;;;;27.53;12.87;;;;;;;;;;5122400;28;20914;-79
2021/11/18 18:09:29;;;;;;;16.67;12.47;;;4.20;99.90;;;;;;5103529;28;20417;-79
2021/11/18 18:11:56;;;;;;;17.60;11.97;;;4.20;99.90;;;;;;5101813;28;20776;-80
2021/11/18 18:14:23;;;;;;;16.33;12.10;;;4.20;99.90;;;;;;5102004;28;20983;-79
2021/11/18 18:16:55;;;;;;;20.60;13.00;;;4.20;99.90;;;;;;5102105;28;20417;-79
2021/11/18 18:19:22;;;;;;;21.17;13.67;;;4.10;99.90;;;;;;5118498;28;20401;-79
2021/11/18 18:21:48;;;;;;;22.47;13.73;;;;;;;;;;5118412;28;20481;-78
2021/11/18 18:24:20;;;;;;;20.97;14.27;;;;;;;;;;5118179;28;20921;-79
2021/11/18 18:26:47;;;;;;;26.93;15.07;;;;;;;;;;5118974;28;20768;-78
2021/11/18 18:29:13;;;;;;;28.63;17.17;;;;;;;;;;5110160;28;20409;-79
2021/11/18 18:31:44;;;;;;;27.00;15.90;;;3.90;99.90;;;;;;5120645;28;20413;-78
2021/11/18 18:34:10;;;;;;;24.70;14.57;;;;;;;;;;5101889;28;20417;-78
2021/11/18 18:36:38;;;;;;;22.23;14.90;;;3.80;99.90;;;;;;5118983;28;20417;-79
2021/11/18 18:39:08;;;;;;;22.03;13.87;;;3.80;99.90;;;;;;5100541;28;20417;-78
2021/11/18 18:41:35;;;;;;;22.57;14.97;;;;;;;;;;5100430;28;20453;-78
2021/11/18 18:44:02;;;;;;;27.10;16.13;;;3.60;99.90;;;;;;5100281;28;20420;-79
2021/11/18 18:46:35;;;;;;;27.47;16.70;;;3.60;99.90;;;;;;5118591;28;20405;-78
2021/11/18 18:49:03;;;;;;;31.33;18.60;;;3.60;99.90;;;;;;5118491;28;20527;-78
2021/11/18 18:51:40;;;;;;;38.77;23.20;;;;;;;;;;5100143;28;20417;-79
2021/11/18 18:54:09;;;;;;;42.20;24.37;;;3.50;99.90;;;;;;5118451;28;20440;-79
2021/11/18 18:56:35;;;;;;;41.13;21.50;;;;;;;;;;5118059;28;20441;-77
2021/11/18 18:59:02;;;;;;;37.80;22.07;;;;;;;;;;5100187;28;20462;-80
2021/11/18 19:01:34;;;;;;;49.60;26.90;;;;;;;;;;5120448;28;20483;-79
2021/11/18 19:04:00;;;;;;;48.37;26.23;;;;;;;;;;5099598;28;20421;-79
2021/11/18 19:06:27;;;;;;;40.90;23.77;;;;;;;;;;5100649;28;20419;-79
2021/11/18 19:08:54;;;;;;;39.00;22.57;;;3.10;99.90;;;;;;5100479;28;20823;-79
2021/11/18 19:11:21;;;;;;;44.00;23.17;;;3.10;99.90;;;;;;5100213;28;20413;-79
2021/11/18 19:13:47;;;;;;;78.17;39.47;;;;;;;;;;5101402;28;20421;-79
2021/11/18 19:16:18;;;;;;;95.90;47.93;;;3.00;99.90;;;;;;5120464;28;20406;-79
2021/11/18 19:18:45;;;;;;;63.03;31.93;;;3.00;99.90;;;;;;5100151;28;20524;-78
2021/11/18 19:21:13;;;;;;;39.60;24.30;;;3.00;99.90;;;;;;5117783;28;20464;-78
2021/11/18 19:23:40;;;;;;;36.73;21.20;;;;;;;;;;5099872;28;20460;-79
2021/11/18 19:26:09;;;;;;;30.27;20.60;;;3.00;99.90;;;;;;5099725;28;20416;-79
2021/11/18 19:32:06;;;;;;;35.77;21.33;;;2.90;99.90;;;;;;5104160;28;20409;-79
2021/11/18 19:34:36;;;;;;;49.93;30.27;;;2.90;99.90;;;;;;5098963;28;20504;-80
2021/11/18 19:37:05;;;;;;;47.57;28.77;;;2.90;99.90;;;;;;5117955;28;20432;-78
2021/11/18 19:39:31;;;;;;;49.33;28.30;;;2.80;99.90;;;;;;5099589;28;20417;-78
2021/11/18 19:41:57;;;;;;;28.37;17.70;;;2.80;99.90;;;;;;5100532;28;20452;-78
2021/11/18 19:44:28;;;;;;;28.67;17.80;;;2.80;99.90;;;;;;5118483;28;20442;-78
2021/11/18 19:46:54;;;;;;;23.47;15.27;;;;;;;;;;5119748;28;20402;-79
2021/11/18 19:49:21;;;;;;;28.97;20.63;;;2.80;99.90;;;;;;5101606;28;20409;-79
2021/11/18 19:51:51;;;;;;;22.27;15.93;;;2.80;99.90;;;;;;5120238;28;20410;-79
2021/11/18 19:54:19;;;;;;;23.63;13.97;;;2.70;99.90;;;;;;5120057;28;20418;-79
2021/11/18 19:56:47;;;;;;;19.60;13.57;;;2.80;99.90;;;;;;5101864;28;20417;-79
2021/11/18 19:59:13;;;;;;;21.40;13.97;;;2.70;99.90;;;;;;5115591;28;20410;-79
2021/11/18 20:01:47;;;;;;;20.97;13.20;;;2.70;99.90;;;;;;5104214;28;20481;-79
2021/11/18 20:04:13;;;;;;;19.30;12.67;;;;;;;;;;5103464;28;20424;-79
2021/11/18 20:06:40;;;;;;;23.27;14.40;;;2.60;99.90;;;;;;5119199;28;20763;-79
2021/11/18 20:09:08;;;;;;;18.37;12.90;;;2.60;99.90;;;;;;5119043;28;20421;-79
2021/11/18 20:11:35;;;;;;;19.93;13.77;;;2.50;99.90;;;;;;5101081;28;20508;-79
2021/11/18 20:14:02;;;;;;;23.37;13.13;;;2.50;99.90;;;;;;5101582;28;20881;-79
2021/11/18 20:16:32;;;;;;;21.47;12.53;;;2.50;99.90;;;;;;5101229;28;20409;-78
2021/11/18 20:18:58;;;;;;;18.53;12.87;;;2.50;99.90;;;;;;5099709;28;20441;-78
2021/11/18 20:21:27;;;;;;;20.67;12.33;;;;;;;;;;5100543;28;20526;-78
2021/11/18 20:23:53;;;;;;;21.13;12.90;;;2.50;99.90;;;;;;5117830;28;20450;-78
2021/11/18 20:26:21;;;;;;;23.27;12.43;;;;;;;;;;5098262;28;20421;-78
2021/11/18 20:28:48;;;;;;;19.97;12.40;;;;;;;;;;5098993;28;20461;-78
2021/11/18 20:31:43;;;;;;;23.90;13.97;;;2.40;99.90;;;;;;5119141;28;20420;-79
2021/11/18 20:34:26;;;;;;;26.37;13.67;;;2.60;99.90;;;;;;5098618;28;20562;-79
2021/11/18 20:36:53;;;;;;;19.63;12.50;;;;;;;;;;5117803;28;20405;-79
2021/11/18 20:39:21;;;;;;;22.77;15.03;;;2.40;99.90;;;;;;5117984;28;20401;-78
2021/11/18 20:41:47;;;;;;;20.33;12.53;;;;;;;;;;5117395;28;20498;-78
2021/11/18 20:44:19;;;;;;;21.27;13.83;;;2.40;99.90;;;;;;5117449;28;20402;-78
2021/11/18 20:46:48;;;;;;;26.10;14.53;;;2.30;99.90;;;;;;5117981;28;20955;-78
2021/11/18 20:49:15;;;;;;;26.47;14.50;;;2.30;99.90;;;;;;5117703;28;20428;-78
2021/11/18 20:51:50;;;;;;;26.17;14.80;;;2.20;99.90;;;;;;5117602;28;20409;-79
2021/11/18 20:54:18;;;;;;;26.73;15.27;;;2.30;99.90;;;;;;5117395;28;20878;-79
2021/11/18 20:56:51;;;;;;;26.50;15.67;;;2.20;99.90;;;;;;5117644;28;20750;-79
2021/11/18 20:59:18;;;;;;;20.57;12.90;;;;;;;;;;5099771;28;20414;-79
2021/11/18 21:01:52;;;;;;;20.80;12.80;;;2.20;99.90;;;;;;5098858;28;20883;-79
2021/11/18 21:04:20;;;;;;;24.60;12.70;;;2.20;99.90;;;;;;5117843;28;20394;-79
2021/11/18 21:06:48;;;;;;;21.43;13.43;;;;;;;;;;5101317;28;20416;-79
2021/11/18 21:09:15;;;;;;;20.13;12.97;;;2.20;99.90;;;;;;5119888;28;20450;-78
2021/11/18 21:11:41;;;;;;;20.63;12.20;;;;;;;;;;5116691;28;20408;-79
2021/11/18 21:14:08;;;;;;;20.97;13.77;;;;;;;;;;5098760;28;20421;-79
2021/11/18 21:16:36;;;;;;;21.03;13.23;;;2.20;99.90;;;;;;5098164;28;20942;-79
2021/11/18 21:19:05;;;;;;;21.57;13.47;;;2.20;99.90;;;;;;5116843;28;20426;-78
2021/11/18 21:21:34;;;;;;;24.23;13.73;;;2.00;99.90;;;;;;5098655;28;20874;-79
2021/11/18 21:24:03;;;;;;;23.00;13.73;;;2.10;99.90;;;;;;5098648;28;20416;-79
2021/11/18 21:26:31;;;;;;;18.07;12.70;;;2.10;99.90;;;;;;5104111;28;20417;-79
2021/11/18 21:28:58;;;;;;;22.63;11.83;;;;;;;;;;5115473;28;20445;-79
2021/11/18 21:31:26;;;;;;;15.33;11.03;;;2.10;99.90;;;;;;5135406;28;20405;-78
2021/11/18 21:33:57;;;;;;;18.40;12.00;;;2.00;99.90;;;;;;5123479;28;20448;-79
2021/11/18 21:36:32;;;;;;;21.00;12.47;;;2.00;99.90;;;;;;5116853;28;20975;-78
2021/11/18 21:39:04;;;;;;;21.47;11.60;;;2.00;99.90;;;;;;5134210;28;20504;-78
2021/11/18 21:41:30;;;;;;;23.17;12.80;;;;;;;;;;5120510;28;20455;-80
2021/11/18 21:43:56;;;;;;;17.17;12.30;;;;;;;;;;5101666;28;20413;-78
2021/11/18 21:46:42;;;;;;;19.50;12.33;;;1.80;99.90;;;;;;5119855;28;20634;-79
2021/11/18 21:49:12;;;;;;;14.83;10.20;;;;;;;;;;5119908;28;20191;-78
2021/11/18 21:51:38;;;;;;;17.30;11.37;;;;;;;;;;5100759;28;20409;-79